Time;durP1;ratioP1;P1;durP2;ratioP2;P2;SDS_P1;SDS_P2;PMS_P1;PMS_P2;Temp;Humidity;BMP_temperature;BMP_pressure;BME280_temperature;BME280_humidity;BME280_pressure;Samples;Min_cycle;Max_cycle;Signal;HPM_P1;HPM_P2
2021/09/17 00:01:00;;;;;;;;;;;14.50;90.50;;;;;;5001662;28;20552;-70
2021/09/17 00:03:27;;;;;;;;;;;14.50;91.40;;;;;;5002337;28;19925;-70
2021/09/17 00:05:53;;;;;;;;;;;14.40;91.80;;;;;;5003447;28;19948;-70
2021/09/17 00:08:20;;;;;;;;;;;14.40;91.20;;;;;;5002671;28;20512;-70
2021/09/17 00:10:47;;;;;;;;;;;14.40;91.00;;;;;;5003034;28;20012;-70
2021/09/17 00:13:14;;;;;;;;;;;14.30;91.70;;;;;;5002987;28;20012;-70
2021/09/17 00:15:41;;;;;;;;;;;14.30;90.80;;;;;;5001360;28;19925;-70
2021/09/17 00:18:07;;;;;;;;;;;14.30;91.30;;;;;;5002810;28;20013;-70
2021/09/17 00:20:35;;;;;;;;;;;14.20;90.80;;;;;;5001845;28;19972;-70
2021/09/17 00:23:02;;;;;;;;;;;14.20;91.00;;;;;;5001867;28;19925;-70
2021/09/17 00:25:28;;;;;;;;;;;14.20;91.20;;;;;;5002781;28;19921;-70
2021/09/17 00:27:55;;;;;;;;;;;14.10;91.80;;;;;;5002505;28;19972;-70
2021/09/17 00:30:24;;;;;;;;;;;14.10;91.30;;;;;;5002038;28;20203;-70
2021/09/17 00:32:51;;;;;;;;;;;14.10;91.80;;;;;;5002490;28;19988;-70
2021/09/17 00:35:17;;;;;;;;;;;14.10;91.30;;;;;;5001357;28;20048;-70
2021/09/17 00:37:44;;;;;;;;;;;14.00;92.00;;;;;;5001759;28;19922;-70
2021/09/17 00:40:11;;;;;;;;;;;14.00;91.90;;;;;;5002853;28;20013;-70
2021/09/17 00:42:39;;;;;;;;;;;14.00;92.00;;;;;;5001971;28;19925;-70
2021/09/17 00:45:06;;;;;;;;;;;14.00;92.70;;;;;;5002300;28;20288;-70
2021/09/17 00:47:33;;;;;;;;;;;14.00;92.00;;;;;;5002343;28;20404;-70
2021/09/17 00:49:59;;;;;;;;;;;14.00;92.50;;;;;;5002612;28;20029;-70
2021/09/17 00:52:26;;;;;;;;;;;14.00;91.40;;;;;;4999964;28;19976;-70
2021/09/17 00:54:53;;;;;;;;;;;14.00;93.10;;;;;;4996815;28;19944;-69
2021/09/17 00:57:19;;;;;;;;;;;14.00;91.90;;;;;;5000175;28;20008;-70
2021/09/17 00:59:46;;;;;;;;;;;14.00;91.60;;;;;;5002616;28;20013;-70
2021/09/17 01:02:12;;;;;;;;;;;14.00;91.70;;;;;;5001766;28;20195;-70
2021/09/17 01:04:40;;;;;;;;;;;13.90;92.40;;;;;;5002385;28;20423;-70
2021/09/17 01:07:06;;;;;;;;;;;13.90;91.30;;;;;;5001687;28;19968;-70
2021/09/17 01:09:33;;;;;;;;;;;13.90;91.40;;;;;;5001715;28;19969;-70
2021/09/17 01:12:03;;;;;;;;;;;13.80;91.50;;;;;;5001892;28;20444;-70
2021/09/17 01:14:34;;;;;;;;;;;13.80;91.40;;;;;;5020204;28;20553;-70
2021/09/17 01:17:01;;;;;;;;;;;13.80;93.30;;;;;;5005667;28;19972;-70
2021/09/17 01:19:28;;;;;;;;;;;13.80;94.00;;;;;;5005834;28;20020;-70
2021/09/17 01:21:58;;;;;;;;;;;13.80;94.60;;;;;;5003981;28;20017;-70
2021/09/17 01:24:25;;;;;;;;;;;13.80;95.70;;;;;;5005359;28;19988;-70
2021/09/17 01:26:52;;;;;;;;;;;13.90;95.50;;;;;;4988262;28;19922;-70
2021/09/17 01:29:18;;;;;;;;;;;13.90;94.20;;;;;;5003903;28;20016;-70
2021/09/17 01:31:45;;;;;;;;;;;13.90;95.00;;;;;;4998974;28;20360;-70
2021/09/17 01:34:14;;;;;;;;;;;13.90;94.30;;;;;;4997299;28;19922;-70
2021/09/17 01:36:41;;;;;;;;;;;13.90;94.80;;;;;;5022674;28;20381;-70
2021/09/17 01:39:07;;;;;;;;;;;13.90;94.80;;;;;;5006184;28;20022;-70
2021/09/17 01:41:34;;;;;;;;;;;13.90;95.30;;;;;;5007539;28;19971;-70
2021/09/17 01:44:01;;;;;;;;;;;13.90;94.90;;;;;;5007173;28;19983;-70
2021/09/17 01:46:27;;;;;;;;;;;13.90;95.00;;;;;;5006613;28;19965;-70
2021/09/17 01:48:54;;;;;;;;;;;14.00;94.60;;;;;;5007717;28;19983;-70
2021/09/17 01:51:21;;;;;;;;;;;13.90;94.90;;;;;;5007352;28;19996;-70
2021/09/17 01:53:47;;;;;;;;;;;14.00;95.40;;;;;;5005090;28;19976;-70
2021/09/17 01:56:14;;;;;;;;;;;14.00;95.00;;;;;;5007521;28;20488;-70
2021/09/17 01:58:41;;;;;;;;;;;14.00;95.40;;;;;;5021930;28;20032;-70
2021/09/17 02:01:08;;;;;;;;;;;14.00;95.30;;;;;;5021072;28;19972;-70
2021/09/17 02:03:35;;;;;;;;;;;14.00;95.40;;;;;;5007567;28;19946;-70
2021/09/17 02:06:01;;;;;;;;;;;14.00;95.70;;;;;;5007234;28;20012;-70
2021/09/17 02:08:28;;;;;;;;;;;14.00;95.40;;;;;;5004836;28;20452;-70
2021/09/17 02:10:55;;;;;;;;;;;14.10;96.40;;;;;;5000102;28;20387;-70
2021/09/17 02:13:21;;;;;;;;;;;14.10;96.10;;;;;;5003653;28;20483;-70
2021/09/17 02:15:48;;;;;;;;;;;14.10;96.10;;;;;;5006925;28;19921;-70
2021/09/17 02:18:15;;;;;;;;;;;14.10;95.90;;;;;;5006673;28;20682;-70
2021/09/17 02:20:42;;;;;;;;;;;14.10;95.80;;;;;;5005743;28;20004;-70
2021/09/17 02:23:09;;;;;;;;;;;14.10;95.90;;;;;;5005759;28;20012;-71
2021/09/17 02:25:35;;;;;;;;;;;14.10;95.70;;;;;;5006178;28;20376;-70
2021/09/17 02:28:02;;;;;;;;;;;14.10;96.10;;;;;;5021403;28;19975;-70
2021/09/17 02:30:29;;;;;;;;;;;14.10;95.80;;;;;;5019652;28;19922;-71
2021/09/17 02:32:55;;;;;;;;;;;14.10;96.00;;;;;;5004889;28;20009;-70
2021/09/17 02:35:22;;;;;;;;;;;14.10;95.60;;;;;;5006942;28;19968;-70
2021/09/17 02:37:49;;;;;;;;;;;14.10;95.70;;;;;;5021295;28;20425;-70
2021/09/17 02:40:16;;;;;;;;;;;14.10;96.50;;;;;;5004816;28;20720;-70
2021/09/17 02:42:43;;;;;;;;;;;14.10;96.30;;;;;;4996462;28;19925;-70
2021/09/17 02:45:09;;;;;;;;;;;14.10;96.30;;;;;;5003426;28;20412;-70
2021/09/17 02:47:36;;;;;;;;;;;14.20;96.40;;;;;;5005906;28;19961;-70
2021/09/17 02:50:03;;;;;;;;;;;14.20;96.20;;;;;;5020805;28;20415;-70
2021/09/17 02:52:30;;;;;;;;;;;14.20;95.90;;;;;;5003403;28;19995;-70
2021/09/17 02:54:57;;;;;;;;;;;14.30;95.60;;;;;;5005513;28;19927;-70
2021/09/17 02:57:24;;;;;;;;;;;14.20;95.80;;;;;;5006353;28;19976;-70
2021/09/17 02:59:50;;;;;;;;;;;14.20;95.50;;;;;;5006519;28;19987;-70
2021/09/17 03:02:17;;;;;;;;;;;14.30;95.10;;;;;;5004498;28;19979;-70
2021/09/17 03:04:45;;;;;;;;;;;14.20;96.30;;;;;;5006597;28;20466;-70
2021/09/17 03:07:11;;;;;;;;;;;14.20;96.10;;;;;;5006405;28;19948;-70
2021/09/17 03:09:38;;;;;;;;;;;14.20;95.50;;;;;;5005357;28;19921;-69
2021/09/17 03:12:05;;;;;;;;;;;14.20;95.40;;;;;;5005906;28;20370;-70
2021/09/17 03:14:32;;;;;;;;;;;14.20;95.80;;;;;;5006385;28;19964;-70
2021/09/17 03:16:58;;;;;;;;;;;14.20;95.80;;;;;;5005736;28;20048;-70
2021/09/17 03:19:25;;;;;;;;;;;14.20;95.50;;;;;;5006274;28;19937;-70
2021/09/17 03:21:52;;;;;;;;;;;14.20;96.00;;;;;;5006126;28;19921;-70
2021/09/17 03:24:19;;;;;;;;;;;14.20;95.50;;;;;;5005468;28;19928;-70
2021/09/17 03:26:45;;;;;;;;;;;14.20;95.40;;;;;;5004434;28;20384;-70
2021/09/17 03:29:12;;;;;;;;;;;14.20;95.30;;;;;;5004364;28;20047;-70
2021/09/17 03:31:39;;;;;;;;;;;14.10;95.30;;;;;;5005214;28;19976;-70
2021/09/17 03:34:05;;;;;;;;;;;14.10;94.70;;;;;;5004545;28;19971;-70
2021/09/17 03:36:32;;;;;;;;;;;14.10;95.00;;;;;;5005567;28;19921;-70
2021/09/17 03:38:59;;;;;;;;;;;14.00;95.40;;;;;;5005759;28;20011;-70
2021/09/17 03:41:25;;;;;;;;;;;14.00;94.40;;;;;;5006068;28;20435;-70
2021/09/17 03:43:52;;;;;;;;;;;14.00;95.40;;;;;;5005285;28;20014;-70
2021/09/17 03:46:18;;;;;;;;;;;13.90;95.40;;;;;;5004160;28;19975;-70
2021/09/17 03:48:45;;;;;;;;;;;13.90;94.70;;;;;;5004255;28;19965;-70
2021/09/17 03:51:12;;;;;;;;;;;14.00;94.40;;;;;;5005410;28;20003;-70
2021/09/17 03:53:38;;;;;;;;;;;13.90;94.20;;;;;;5003596;28;19921;-70
2021/09/17 03:56:05;;;;;;;;;;;13.90;93.70;;;;;;5004351;28;20021;-69
2021/09/17 03:58:32;;;;;;;;;;;13.80;93.90;;;;;;5004824;28;19948;-70
2021/09/17 04:00:58;;;;;;;;;;;13.80;93.70;;;;;;4986923;28;19961;-70
2021/09/17 04:03:26;;;;;;;;;;;13.70;95.60;;;;;;5005122;28;20783;-70
2021/09/17 04:05:52;;;;;;;;;;;13.70;94.20;;;;;;5004086;28;20000;-70
2021/09/17 04:08:19;;;;;;;;;;;13.70;93.80;;;;;;5004386;28;20361;-70
2021/09/17 04:10:46;;;;;;;;;;;13.70;94.60;;;;;;5005344;28;20000;-70
2021/09/17 04:13:12;;;;;;;;;;;13.60;93.80;;;;;;5005106;28;19964;-70
2021/09/17 04:15:39;;;;;;;;;;;13.60;93.90;;;;;;5004978;28;20016;-69
2021/09/17 04:18:06;;;;;;;;;;;13.60;94.70;;;;;;5005738;28;20012;-70
2021/09/17 04:20:32;;;;;;;;;;;13.60;93.70;;;;;;5004040;28;20012;-70
2021/09/17 04:22:59;;;;;;;;;;;13.50;94.40;;;;;;5004526;28;19952;-70
2021/09/17 04:25:27;;;;;;;;;;;13.50;94.40;;;;;;5005567;28;20025;-70
2021/09/17 04:27:53;;;;;;;;;;;13.40;93.90;;;;;;5003611;28;20009;-70
2021/09/17 04:30:20;;;;;;;;;;;13.40;93.50;;;;;;5003088;28;19977;-70
2021/09/17 04:32:47;;;;;;;;;;;13.40;93.30;;;;;;5005157;28;19965;-69
2021/09/17 04:35:13;;;;;;;;;;;13.30;93.20;;;;;;5003899;28;20371;-70
2021/09/17 04:37:41;;;;;;;;;;;13.20;93.20;;;;;;5002883;28;20011;-70
2021/09/17 04:40:08;;;;;;;;;;;13.20;93.00;;;;;;5004755;28;20044;-70
2021/09/17 04:42:35;;;;;;;;;;;13.20;93.00;;;;;;5003419;28;20462;-70
2021/09/17 04:45:03;;;;;;;;;;;13.10;92.90;;;;;;5003374;28;20012;-70
2021/09/17 04:47:29;;;;;;;;;;;13.00;93.00;;;;;;5006262;28;20437;-70
2021/09/17 04:49:58;;;;;;;;;;;13.00;92.90;;;;;;4991062;28;19921;-69
2021/09/17 04:52:42;;;;;;;;;;;12.90;92.90;;;;;;5007809;28;19921;-70
2021/09/17 04:55:09;;;;;;;;;;;12.90;92.80;;;;;;5009029;28;20015;-70
2021/09/17 04:57:36;;;;;;;;;;;12.80;92.80;;;;;;5008572;28;19925;-70
2021/09/17 05:00:04;;;;;;;;;;;12.80;92.80;;;;;;5007874;28;20376;-70
2021/09/17 05:02:31;;;;;;;;;;;12.70;92.70;;;;;;5020349;28;20143;-70
2021/09/17 05:04:58;;;;;;;;;;;12.70;92.60;;;;;;4987296;28;20002;-70
2021/09/17 05:07:25;;;;;;;;;;;12.70;93.20;;;;;;4986494;28;20040;-70
2021/09/17 05:09:52;;;;;;;;;;;12.70;92.80;;;;;;4991221;28;19972;-70
2021/09/17 05:12:18;;;;;;;;;;;12.60;92.60;;;;;;5005418;28;20015;-70
2021/09/17 05:14:45;;;;;;;;;;;12.60;92.70;;;;;;5006762;28;19964;-71
2021/09/17 05:17:12;;;;;;;;;;;12.60;92.70;;;;;;5007623;28;20020;-70
2021/09/17 05:19:38;;;;;;;;;;;12.60;93.50;;;;;;5009701;28;20012;-70
2021/09/17 05:22:05;;;;;;;;;;;12.60;93.00;;;;;;5006729;28;20452;-70
2021/09/17 05:24:32;;;;;;;;;;;12.50;93.00;;;;;;5005816;28;19957;-70
2021/09/17 05:26:58;;;;;;;;;;;12.50;92.80;;;;;;4995652;28;19928;-70
2021/09/17 05:29:25;;;;;;;;;;;12.50;92.60;;;;;;4995523;28;20039;-70
2021/09/17 05:31:52;;;;;;;;;;;12.50;92.60;;;;;;4997170;28;19934;-70
2021/09/17 05:34:23;;;;;;;;;;;12.50;92.60;;;;;;5000438;28;19925;-70
2021/09/17 05:36:49;;;;;;;;;;;12.40;92.70;;;;;;4995678;28;19922;-70
2021/09/17 05:39:16;;;;;;;;;;;12.40;92.70;;;;;;4993524;28;20016;-70
2021/09/17 05:41:43;;;;;;;;;;;12.40;92.60;;;;;;4997991;28;20017;-70
2021/09/17 05:44:09;;;;;;;;;;;12.40;92.60;;;;;;4999296;28;19968;-70
2021/09/17 05:46:36;;;;;;;;;;;12.40;92.70;;;;;;4995145;28;20373;-70
2021/09/17 05:49:03;;;;;;;;;;;12.40;92.80;;;;;;4996152;28;20132;-70
2021/09/17 05:51:29;;;;;;;;;;;12.40;92.60;;;;;;4994125;28;20012;-70
2021/09/17 05:54:05;;;;;;;;;;;12.40;92.60;;;;;;4994538;28;19939;-70
2021/09/17 05:56:31;;;;;;;;;;;12.40;92.60;;;;;;5006328;28;19970;-70
2021/09/17 05:58:58;;;;;;;;;;;12.40;92.70;;;;;;4989941;28;19980;-70
2021/09/17 06:01:25;;;;;;;;;;;12.40;92.40;;;;;;4988084;28;19969;-70
2021/09/17 06:03:52;;;;;;;;;;;12.40;93.00;;;;;;5024081;28;20016;-70
2021/09/17 06:06:18;;;;;;;;;;;12.40;93.00;;;;;;4992748;28;20496;-69
2021/09/17 06:08:45;;;;;;;;;;;12.40;92.60;;;;;;5020683;28;19972;-70
2021/09/17 06:11:12;;;;;;;;;;;12.50;93.00;;;;;;4993274;28;20039;-68
2021/09/17 06:13:39;;;;;;;;;;;12.50;92.70;;;;;;4993482;28;20052;-70
2021/09/17 06:16:06;;;;;;;;;;;12.50;92.80;;;;;;5003308;28;19932;-70
2021/09/17 06:18:40;;;;;;;;;;;12.50;92.50;;;;;;5000031;28;19933;-70
2021/09/17 06:21:07;;;;;;;;;;;12.50;92.70;;;;;;4992475;28;20036;-71
2021/09/17 06:23:34;;;;;;;;;;;12.50;92.90;;;;;;5005459;28;20011;-72
2021/09/17 06:26:00;;;;;;;;;;;12.60;92.80;;;;;;4995917;28;19932;-72
2021/09/17 06:28:27;;;;;;;;;;;12.60;92.70;;;;;;4989149;28;19987;-72
2021/09/17 06:30:54;;;;;;;;;;;12.60;92.50;;;;;;5016539;28;20374;-72
2021/09/17 06:33:20;;;;;;;;;;;12.70;92.60;;;;;;5000208;28;20051;-72
2021/09/17 06:35:47;;;;;;;;;;;12.70;92.50;;;;;;4995911;28;19968;-72
2021/09/17 06:38:14;;;;;;;;;;;12.80;92.70;;;;;;4996836;28;20950;-72
2021/09/17 06:40:40;;;;;;;;;;;12.80;93.30;;;;;;4995802;28;19925;-72
2021/09/17 06:43:07;;;;;;;;;;;12.90;93.60;;;;;;5001472;28;19953;-72
2021/09/17 06:45:34;;;;;;;;;;;13.00;94.30;;;;;;4994894;28;19976;-72
2021/09/17 06:48:00;;;;;;;;;;;13.10;95.10;;;;;;4994714;28;19933;-72
2021/09/17 06:50:28;;;;;;;;;;;13.20;94.20;;;;;;5001541;28;20012;-72
2021/09/17 06:52:54;;;;;;;;;;;13.30;94.50;;;;;;5000423;28;20040;-72
2021/09/17 06:55:22;;;;;;;;;;;13.40;95.10;;;;;;5000303;28;19999;-72
2021/09/17 06:57:49;;;;;;;;;;;13.50;95.60;;;;;;4999301;28;19932;-72
2021/09/17 07:00:16;;;;;;;;;;;13.70;97.30;;;;;;4999621;28;20489;-72
2021/09/17 07:02:43;;;;;;;;;;;13.90;95.40;;;;;;5000630;28;19927;-72
2021/09/17 07:05:11;;;;;;;;;;;14.00;96.20;;;;;;5000884;28;20415;-72
2021/09/17 07:07:37;;;;;;;;;;;14.10;95.60;;;;;;4999478;28;19964;-71
2021/09/17 07:10:05;;;;;;;;;;;14.20;95.40;;;;;;4995791;28;20028;-72
2021/09/17 07:12:31;;;;;;;;;;;14.30;94.90;;;;;;4982468;28;20386;-72
2021/09/17 07:14:59;;;;;;;;;;;14.40;95.40;;;;;;4996534;28;20017;-72
2021/09/17 07:17:25;;;;;;;;;;;14.60;95.50;;;;;;4993490;28;20408;-72
2021/09/17 07:19:52;;;;;;;;;;;14.60;95.20;;;;;;4991475;28;20440;-73
2021/09/17 07:22:20;;;;;;;;;;;14.70;95.00;;;;;;4987348;28;20141;-72
2021/09/17 07:24:47;;;;;;;;;;;14.80;95.20;;;;;;4990754;28;20024;-72
2021/09/17 07:27:14;;;;;;;;;;;14.80;95.20;;;;;;5003270;28;20440;-72
2021/09/17 07:29:41;;;;;;;;;;;14.90;95.00;;;;;;5007469;28;19921;-72
2021/09/17 07:32:07;;;;;;;;;;;15.00;95.30;;;;;;4999984;28;20580;-72
2021/09/17 07:34:34;;;;;;;;;;;15.10;94.80;;;;;;4982874;28;20497;-72
2021/09/17 07:37:01;;;;;;;;;;;15.20;94.90;;;;;;4986231;28;20032;-73
2021/09/17 07:39:27;;;;;;;;;;;15.30;94.60;;;;;;5015585;28;20035;-72
2021/09/17 07:41:54;;;;;;;;;;;15.40;94.70;;;;;;4992832;28;19988;-73
2021/09/17 07:44:21;;;;;;;;;;;15.50;94.30;;;;;;4991152;28;20187;-73
2021/09/17 07:46:47;;;;;;;;;;;15.50;94.30;;;;;;4999489;28;20020;-72
2021/09/17 07:49:14;;;;;;;;;;;15.60;94.10;;;;;;4993630;28;20574;-74
2021/09/17 07:51:41;;;;;;;;;;;15.70;94.10;;;;;;4985235;28;20461;-72
2021/09/17 07:54:07;;;;;;;;;;;15.80;93.90;;;;;;4993176;28;20398;-73
2021/09/17 07:56:34;;;;;;;;;;;15.90;94.10;;;;;;4993918;28;20008;-72
2021/09/17 07:59:01;;;;;;;;;;;16.00;93.60;;;;;;4993113;28;20029;-72
2021/09/17 08:01:27;;;;;;;;;;;16.20;93.60;;;;;;4994545;28;20028;-72
2021/09/17 08:03:54;;;;;;;;;;;16.30;93.00;;;;;;4985343;28;19925;-73
2021/09/17 08:06:21;;;;;;;;;;;16.40;93.00;;;;;;5000351;28;19925;-73
2021/09/17 08:08:48;;;;;;;;;;;16.40;92.20;;;;;;4996551;28;20456;-72
2021/09/17 08:11:17;;;;;;;;;;;16.50;91.90;;;;;;4998799;28;20385;-72
2021/09/17 08:13:44;;;;;;;;;;;16.40;91.70;;;;;;4998571;28;20411;-72
2021/09/17 08:16:10;;;;;;;;;;;16.50;91.70;;;;;;5008487;28;20016;-72
2021/09/17 08:18:37;;;;;;;;;;;16.50;91.30;;;;;;4999766;28;20021;-73
2021/09/17 08:21:04;;;;;;;;;;;16.50;91.50;;;;;;4998684;28;20043;-73
2021/09/17 08:23:31;;;;;;;;;;;16.50;91.40;;;;;;4997703;28;20711;-73
2021/09/17 08:25:58;;;;;;;;;;;16.60;90.90;;;;;;5000660;28;19976;-73
2021/09/17 08:28:24;;;;;;;;;;;16.60;91.10;;;;;;5001944;28;19930;-73
2021/09/17 08:30:51;;;;;;;;;;;16.60;91.30;;;;;;5003358;28;20009;-73
2021/09/17 08:33:18;;;;;;;;;;;16.70;91.00;;;;;;4995107;28;20015;-73
2021/09/17 08:35:45;;;;;;;;;;;16.70;90.80;;;;;;4999668;28;20016;-72
2021/09/17 08:38:11;;;;;;;;;;;16.80;90.60;;;;;;4999017;28;20292;-71
2021/09/17 08:40:38;;;;;;;;;;;16.90;90.70;;;;;;4985825;28;20441;-71
2021/09/17 08:43:05;;;;;;;;;;;16.90;90.40;;;;;;4995621;28;20013;-75
2021/09/17 08:45:31;;;;;;;;;;;17.00;90.30;;;;;;4994935;28;19976;-74
2021/09/17 08:47:58;;;;;;;;;;;17.00;90.10;;;;;;4988084;28;19933;-71
2021/09/17 08:50:25;;;;;;;;;;;17.10;90.20;;;;;;4998508;28;20452;-71
2021/09/17 08:52:52;;;;;;;;;;;17.10;89.90;;;;;;5009129;28;19968;-72
2021/09/17 08:55:18;;;;;;;;;;;17.20;90.50;;;;;;4995795;28;20001;-74
2021/09/17 08:57:45;;;;;;;;;;;17.30;88.90;;;;;;5006642;28;19945;-72
2021/09/17 09:00:29;;;;;;;;;;;17.40;90.40;;;;;;4991508;28;20012;-75
2021/09/17 09:02:57;;;;;;;;;;;17.60;88.80;;;;;;4992772;28;20361;-71
2021/09/17 09:05:28;;;;;;;;;;;17.70;88.50;;;;;;4992613;28;20717;-72
2021/09/17 09:07:55;;;;;;;;;;;17.70;85.80;;;;;;5003659;28;19987;-72
2021/09/17 09:10:22;;;;;;;;;;;17.90;87.50;;;;;;5008049;28;19929;-72
2021/09/17 09:12:49;;;;;;;;;;;18.00;87.10;;;;;;4990961;28;19929;-72
2021/09/17 09:15:17;;;;;;;;;;;18.10;85.50;;;;;;4994796;28;20044;-72
2021/09/17 09:17:44;;;;;;;;;;;18.20;86.00;;;;;;4987574;28;20412;-72
2021/09/17 09:20:23;;;;;;;;;;;18.30;84.50;;;;;;5000025;28;20016;-72
2021/09/17 09:23:07;;;;;;;;;;;18.40;85.00;;;;;;5000400;28;20483;-72
2021/09/17 09:25:35;;;;;;;;;;;18.50;82.90;;;;;;5005047;28;20016;-72
2021/09/17 09:28:18;;;;;;;;;;;18.70;82.90;;;;;;4975492;28;20013;-74
2021/09/17 09:30:45;;;;;;;;;;;18.70;80.40;;;;;;4985775;28;19922;-71
2021/09/17 09:33:25;;;;;;;;;;;18.70;81.10;;;;;;4991837;28;19952;-72
2021/09/17 09:36:01;;;;;;;;;;;18.80;81.60;;;;;;4995211;28;19930;-72
2021/09/17 09:38:31;;;;;;;;;;;18.80;77.80;;;;;;4989380;28;20511;-72
2021/09/17 09:41:01;;;;;;;;;;;18.90;80.00;;;;;;4995052;28;20022;-72
2021/09/17 09:43:29;;;;;;;;;;;19.00;77.80;;;;;;4995713;28;19925;-72
2021/09/17 09:45:59;;;;;;;;;;;19.00;78.30;;;;;;4993282;28;19921;-72
2021/09/17 09:48:26;;;;;;;;;;;19.10;78.30;;;;;;4979326;28;19968;-72
2021/09/17 09:51:02;;;;;;;;;;;19.30;76.60;;;;;;4991773;28;20016;-72
2021/09/17 09:53:29;;;;;;;;;;;19.30;75.80;;;;;;4989999;28;20024;-72
2021/09/17 09:55:55;;;;;;;;;;;19.40;73.70;;;;;;4991150;28;20009;-72
2021/09/17 09:58:22;;;;;;;;;;;19.40;74.30;;;;;;4996796;28;19922;-72
2021/09/17 10:00:49;;;;;;;;;;;19.50;75.30;;;;;;4996775;28;20266;-72
2021/09/17 10:03:16;;;;;;;;;;;19.70;74.40;;;;;;4995653;28;19952;-72
2021/09/17 10:05:44;;;;;;;;;;;19.90;73.50;;;;;;4986923;28;19922;-72
2021/09/17 10:08:12;;;;;;;;;;;20.00;75.40;;;;;;4992806;28;19933;-72
2021/09/17 10:10:38;;;;;;;;;;;20.10;71.60;;;;;;5006381;28;19987;-72
2021/09/17 10:13:05;;;;;;;;;;;20.10;72.60;;;;;;4995942;28;20182;-72
2021/09/17 10:15:35;;;;;;;;;;;20.20;72.40;;;;;;4999214;28;20064;-72
2021/09/17 10:18:07;;;;;;;;;;;20.30;72.80;;;;;;4994933;28;19988;-72
2021/09/17 10:20:37;;;;;;;;;;;20.40;72.30;;;;;;5007348;28;19963;-72
2021/09/17 10:23:22;;;;;;;;;;;20.40;71.80;;;;;;5004652;28;19968;-72
2021/09/17 10:25:56;;;;;;;;;;;20.40;71.80;;;;;;4986172;28;20167;-72
2021/09/17 10:28:23;;;;;;;;;;;20.60;73.90;;;;;;5012436;28;19925;-72
2021/09/17 10:30:50;;;;;;;;;;;20.70;73.60;;;;;;4997044;28;19925;-72
2021/09/17 10:33:23;;;;;;;;;;;20.80;72.10;;;;;;4999757;28;20008;-72
2021/09/17 10:35:50;;;;;;;;;;;21.00;72.40;;;;;;4993395;28;20381;-72
2021/09/17 10:38:16;;;;;;;;;;;21.20;74.70;;;;;;5001823;28;19961;-73
2021/09/17 10:40:43;;;;;;;;;;;21.60;74.20;;;;;;5007239;28;19925;-72
2021/09/17 10:43:10;;;;;;;;;;;21.90;69.30;;;;;;5007571;28;19921;-72
2021/09/17 10:45:40;;;;;;;;;;;22.20;71.00;;;;;;5006309;28;20530;-72
2021/09/17 10:48:07;;;;;;;;;;;22.30;70.90;;;;;;5023176;28;19929;-72
2021/09/17 10:50:37;;;;;;;;;;;22.50;68.70;;;;;;5001830;28;19995;-72
2021/09/17 10:53:04;;;;;;;;;;;22.70;69.70;;;;;;5006003;28;19968;-72
2021/09/17 10:55:43;;;;;;;;;;;22.90;67.40;;;;;;5011268;28;19922;-72
2021/09/17 10:58:24;;;;;;;;;;;23.00;66.70;;;;;;4993842;28;20566;-72
2021/09/17 11:00:58;;;;;;;;;;;22.80;62.50;;;;;;4992598;28;19999;-71
2021/09/17 11:03:41;;;;;;;;;;;22.50;63.00;;;;;;5003401;28;19921;-72
2021/09/17 11:08:57;;;;;;;;;;;22.20;66.60;;;;;;5006472;28;19925;-72
2021/09/17 11:11:27;;;;;;;;;;;22.50;67.20;;;;;;5006389;28;20044;-72
2021/09/17 11:13:55;;;;;;;;;;;22.70;67.70;;;;;;5005254;28;19925;-72
2021/09/17 11:16:22;;;;;;;;;;;22.70;63.60;;;;;;5005177;28;20051;-72
2021/09/17 11:18:53;;;;;;;;;;;22.70;64.30;;;;;;5001991;28;19929;-72
2021/09/17 11:21:20;;;;;;;;;;;22.60;63.80;;;;;;5005709;28;19963;-72
2021/09/17 11:23:51;;;;;;;;;;;22.60;66.90;;;;;;4999986;28;19921;-72
2021/09/17 11:26:22;;;;;;;;;;;22.80;64.70;;;;;;4998523;28;19968;-72
2021/09/17 11:29:08;;;;;;;;;;;23.00;63.60;;;;;;5004015;28;20381;-72
2021/09/17 11:31:35;;;;;;;;;;;23.20;62.60;;;;;;5015745;28;20020;-72
2021/09/17 11:34:03;;;;;;;;;;;23.10;61.90;;;;;;4999969;28;19925;-72
2021/09/17 11:36:33;;;;;;;;;;;23.20;65.00;;;;;;5005991;28;19921;-72
2021/09/17 11:39:19;;;;;;;;;;;23.20;61.60;;;;;;5010187;28;20354;-72
2021/09/17 11:41:47;;;;;;;;;;;23.10;61.10;;;;;;4997142;28;19990;-72
2021/09/17 11:44:33;;;;;;;;;;;23.00;61.20;;;;;;5006163;28;19957;-72
2021/09/17 11:47:01;;;;;;;;;;;23.00;63.40;;;;;;5000084;28;19928;-72
2021/09/17 11:49:28;;;;;;;;;;;23.00;60.20;;;;;;5005142;28;20016;-72
2021/09/17 11:51:56;;;;;;;;;;;22.80;61.90;;;;;;4995363;28;20016;-72
2021/09/17 11:54:23;;;;;;;;;;;22.90;64.50;;;;;;4997369;28;20530;-72
2021/09/17 11:57:03;;;;;;;;;;;23.30;67.60;;;;;;5003038;28;20454;-72
2021/09/17 11:59:30;;;;;;;;;;;23.60;66.00;;;;;;5003857;28;19987;-72
2021/09/17 12:02:10;;;;;;;;;;;24.20;62.30;;;;;;4997859;28;19969;-72
2021/09/17 12:04:36;;;;;;;;;;;24.30;64.10;;;;;;5010499;28;20004;-72
2021/09/17 12:07:03;;;;;;;;;;;24.60;61.30;;;;;;5004970;28;19933;-72
2021/09/17 12:09:30;;;;;;;;;;;25.10;65.80;;;;;;5005748;28;19922;-72
2021/09/17 12:11:57;;;;;;;;;;;25.20;57.10;;;;;;4991587;28;19928;-72
2021/09/17 12:14:24;;;;;;;;;;;25.10;56.80;;;;;;4990673;28;19930;-71
2021/09/17 12:16:50;;;;;;;;;;;25.00;56.10;;;;;;4994927;28;19953;-72
2021/09/17 12:19:17;;;;;;;;;;;24.90;55.90;;;;;;5005589;28;19948;-72
2021/09/17 12:21:44;;;;;;;;;;;24.70;59.10;;;;;;5021251;28;20131;-72
2021/09/17 12:24:17;;;;;;;;;;;25.00;61.60;;;;;;5016155;28;19932;-72
2021/09/17 12:26:53;;;;;;;;;;;24.90;56.70;;;;;;4993862;28;20053;-72
2021/09/17 12:29:20;;;;;;;;;;;25.00;60.50;;;;;;4996170;28;19926;-72
2021/09/17 12:31:47;;;;;;;;;;;24.80;56.20;;;;;;4983116;28;20012;-72
2021/09/17 12:34:16;;;;;;;;;;;24.90;57.80;;;;;;4995287;28;19925;-73
2021/09/17 12:36:43;;;;;;;;;;;25.30;59.40;;;;;;5000505;28;19930;-72
2021/09/17 12:39:10;;;;;;;;;;;26.00;62.00;;;;;;5000280;28;19931;-75
2021/09/17 12:41:36;;;;;;;;;;;26.10;59.10;;;;;;4998565;28;19929;-76
2021/09/17 12:44:05;;;;;;;;;;;26.70;61.70;;;;;;4989836;28;19929;-76
2021/09/17 12:46:35;;;;;;;;;;;26.80;53.60;;;;;;5000996;28;19921;-77
2021/09/17 12:49:01;;;;;;;;;;;27.00;51.20;;;;;;4995577;28;19979;-77
2021/09/17 12:51:28;;;;;;;;;;;27.20;50.50;;;;;;4972724;28;19972;-77
2021/09/17 12:54:00;;;;;;;;;;;27.40;56.10;;;;;;4981560;28;20603;-74
2021/09/17 12:56:27;;;;;;;;;;;27.60;54.70;;;;;;4998736;28;19921;-77
2021/09/17 12:59:06;;;;;;;;;;;27.70;51.00;;;;;;4993728;28;19972;-76
2021/09/17 13:01:35;;;;;;;;;;;27.90;50.10;;;;;;4991478;28;19999;-73
2021/09/17 13:04:03;;;;;;;;;;;27.60;49.40;;;;;;4998388;28;20300;-72
2021/09/17 13:06:30;;;;;;;;;;;26.70;52.20;;;;;;4998697;28;20626;-72
2021/09/17 13:08:56;;;;;;;;;;;26.60;52.90;;;;;;4992879;28;20450;-71
2021/09/17 13:11:23;;;;;;;;;;;26.70;55.30;;;;;;4995332;28;20325;-72
2021/09/17 13:13:50;;;;;;;;;;;26.90;55.80;;;;;;5015895;28;19964;-72
2021/09/17 13:16:17;;;;;;;;;;;27.10;54.30;;;;;;4999500;28;19922;-72
2021/09/17 13:18:44;;;;;;;;;;;27.10;53.10;;;;;;5011115;28;19925;-72
2021/09/17 13:21:11;;;;;;;;;;;27.20;55.60;;;;;;4997897;28;19972;-72
2021/09/17 13:23:37;;;;;;;;;;;27.00;49.60;;;;;;4998929;28;20052;-72
2021/09/17 13:26:04;;;;;;;;;;;26.70;53.70;;;;;;4988734;28;20040;-72
2021/09/17 13:28:31;;;;;;;;;;;26.50;53.40;;;;;;4985508;28;19926;-72
2021/09/17 13:30:57;;;;;;;;;;;26.40;55.30;;;;;;4988780;28;19984;-72
2021/09/17 13:33:24;;;;;;;;;;;26.50;55.10;;;;;;4990362;28;19929;-72
2021/09/17 13:35:51;;;;;;;;;;;27.20;54.60;;;;;;5000153;28;19965;-72
2021/09/17 13:38:19;;;;;;;;;;;27.80;53.30;;;;;;4999604;28;19968;-72
2021/09/17 13:40:46;;;;;;;;;;;28.00;53.80;;;;;;4999957;28;20448;-72
2021/09/17 13:43:12;;;;;;;;;;;28.10;50.80;;;;;;4996383;28;20392;-72
2021/09/17 13:45:39;;;;;;;;;;;27.80;52.50;;;;;;5014562;28;19972;-71
2021/09/17 13:48:06;;;;;;;;;;;27.20;51.00;;;;;;5002473;28;20012;-73
2021/09/17 13:50:32;;;;;;;;;;;26.70;53.60;;;;;;5003203;28;19932;-72
2021/09/17 13:53:00;;;;;;;;;;;26.50;54.20;;;;;;5002838;28;19944;-73
2021/09/17 13:55:31;;;;;;;;;;;26.70;55.70;;;;;;5002112;28;19979;-73
2021/09/17 13:57:59;;;;;;;;;;;27.20;53.90;;;;;;5002946;28;20447;-73
2021/09/17 14:00:28;;;;;;;;;;;27.40;54.90;;;;;;5002427;28;19967;-73
2021/09/17 14:02:56;;;;;;;;;;;27.80;54.10;;;;;;5001877;28;19933;-73
2021/09/17 14:05:23;;;;;;;;;;;28.10;52.80;;;;;;5003428;28;19933;-73
2021/09/17 14:07:50;;;;;;;;;;;28.50;54.50;;;;;;5002847;28;20019;-73
2021/09/17 14:10:16;;;;;;;;;;;28.60;49.10;;;;;;5003503;28;19937;-73
2021/09/17 14:12:43;;;;;;;;;;;28.20;50.30;;;;;;4988987;28;20417;-73
2021/09/17 14:15:10;;;;;;;;;;;28.10;53.50;;;;;;4996672;28;19925;-73
2021/09/17 14:17:37;;;;;;;;;;;27.90;50.70;;;;;;4990296;28;20083;-72
2021/09/17 14:20:03;;;;;;;;;;;27.70;49.30;;;;;;4991480;28;20391;-73
2021/09/17 14:22:30;;;;;;;;;;;27.20;51.60;;;;;;4998277;28;20353;-73